sensor_id;sensor_type;location;lat;lon;timestamp;pressure;altitude;pressure_sealevel;temperature;humidity
22753;BME280;11543;43.144;24.684;2023-04-10T00:00:29;99082.47;;;11.11;72.18
22753;BME280;11543;43.144;24.684;2023-04-10T00:03:12;99081.47;;;11.12;72.31
22753;BME280;11543;43.144;24.684;2023-04-10T00:05:43;99102.72;;;11.23;72.47
22753;BME280;11543;43.144;24.684;2023-04-10T00:08:09;99076.41;;;11.09;72.42
22753;BME280;11543;43.144;24.684;2023-04-10T00:13:57;99062.91;;;11.01;72.73
22753;BME280;11543;43.144;24.684;2023-04-10T00:16:22;99075.88;;;11.05;72.98
22753;BME280;11543;43.144;24.684;2023-04-10T00:18:48;99088.53;;;11.13;72.87
22753;BME280;11543;43.144;24.684;2023-04-10T00:21:13;99073.63;;;11.01;72.64
22753;BME280;11543;43.144;24.684;2023-04-10T00:23:39;99082.47;;;11.11;72.60
22753;BME280;11543;43.144;24.684;2023-04-10T00:26:05;99067.97;;;11.04;72.77
22753;BME280;11543;43.144;24.684;2023-04-10T00:28:30;99070.50;;;11.05;72.49
22753;BME280;11543;43.144;24.684;2023-04-10T00:30:56;99062.59;;;11.04;72.51
22753;BME280;11543;43.144;24.684;2023-04-10T00:33:21;99067.97;;;11.04;72.78
22753;BME280;11543;43.144;24.684;2023-04-10T00:35:47;99069.81;;;11.03;72.29
22753;BME280;11543;43.144;24.684;2023-04-10T00:38:12;99084.84;;;11.14;72.47
22753;BME280;11543;43.144;24.684;2023-04-10T00:40:38;99073.56;;;11.10;72.76
22753;BME280;11543;43.144;24.684;2023-04-10T00:43:15;99058.59;;;11.08;72.73
22753;BME280;11543;43.144;24.684;2023-04-10T00:45:50;99059.44;;;11.08;72.31
22753;BME280;11543;43.144;24.684;2023-04-10T00:48:15;99055.78;;;11.09;72.15
22753;BME280;11543;43.144;24.684;2023-04-10T00:50:41;99049.16;;;11.04;72.17
22753;BME280;11543;43.144;24.684;2023-04-10T00:53:10;99054.47;;;10.96;72.17
22753;BME280;11543;43.144;24.684;2023-04-10T00:55:35;99055.38;;;10.87;72.67
22753;BME280;11543;43.144;24.684;2023-04-10T00:58:01;99050.63;;;10.80;72.39
22753;BME280;11543;43.144;24.684;2023-04-10T01:00:27;99063.03;;;10.81;72.82
22753;BME280;11543;43.144;24.684;2023-04-10T01:02:53;99060.66;;;10.78;73.63
22753;BME280;11543;43.144;24.684;2023-04-10T01:05:20;99052.22;;;10.73;73.33
22753;BME280;11543;43.144;24.684;2023-04-10T01:08:07;99063.72;;;10.83;73.73
22753;BME280;11543;43.144;24.684;2023-04-10T01:14:26;99053.63;;;10.95;73.68
22753;BME280;11543;43.144;24.684;2023-04-10T01:17:21;99055.84;;;11.00;73.49
22753;BME280;11543;43.144;24.684;2023-04-10T01:20:15;99059.22;;;11.02;73.03
22753;BME280;11543;43.144;24.684;2023-04-10T01:25:50;99030.16;;;10.97;72.72
22753;BME280;11543;43.144;24.684;2023-04-10T01:30:56;99061.97;;;11.10;72.25
22753;BME280;11543;43.144;24.684;2023-04-10T01:33:26;99050.56;;;11.08;72.13
22753;BME280;11543;43.144;24.684;2023-04-10T01:35:54;99063.38;;;11.14;71.97
22753;BME280;11543;43.144;24.684;2023-04-10T01:38:23;99065.34;;;11.12;71.78
22753;BME280;11543;43.144;24.684;2023-04-10T01:40:52;99033.69;;;10.98;71.68
22753;BME280;11543;43.144;24.684;2023-04-10T01:43:23;99044.41;;;10.98;71.51
22753;BME280;11543;43.144;24.684;2023-04-10T01:45:56;99046.16;;;10.89;71.72
22753;BME280;11543;43.144;24.684;2023-04-10T01:48:23;99049.41;;;10.93;71.58
22753;BME280;11543;43.144;24.684;2023-04-10T01:50:49;99068.56;;;10.98;71.66
22753;BME280;11543;43.144;24.684;2023-04-10T01:53:16;99056.91;;;10.89;71.48
22753;BME280;11543;43.144;24.684;2023-04-10T01:55:42;99054.97;;;10.81;71.61
22753;BME280;11543;43.144;24.684;2023-04-10T01:58:08;99047.00;;;10.72;71.87
22753;BME280;11543;43.144;24.684;2023-04-10T02:00:41;99055.44;;;10.77;72.21
22753;BME280;11543;43.144;24.684;2023-04-10T02:03:11;99040.84;;;10.62;71.85
22753;BME280;11543;43.144;24.684;2023-04-10T02:05:55;99057.19;;;10.68;72.31
22753;BME280;11543;43.144;24.684;2023-04-10T02:08:35;99049.03;;;10.60;72.35
22753;BME280;11543;43.144;24.684;2023-04-10T02:11:33;99059.47;;;10.63;72.55
22753;BME280;11543;43.144;24.684;2023-04-10T02:14:04;99061.66;;;10.50;72.45
22753;BME280;11543;43.144;24.684;2023-04-10T02:16:30;99056.22;;;10.42;72.79
22753;BME280;11543;43.144;24.684;2023-04-10T02:18:58;99037.00;;;10.37;73.47
22753;BME280;11543;43.144;24.684;2023-04-10T02:21:26;99046.03;;;10.36;73.38
22753;BME280;11543;43.144;24.684;2023-04-10T02:23:52;99059.28;;;10.47;73.21
22753;BME280;11543;43.144;24.684;2023-04-10T02:26:17;99058.69;;;10.53;73.21
22753;BME280;11543;43.144;24.684;2023-04-10T02:28:43;99032.75;;;10.44;73.21
22753;BME280;11543;43.144;24.684;2023-04-10T02:31:08;99035.16;;;10.47;72.86
22753;BME280;11543;43.144;24.684;2023-04-10T02:33:34;99054.72;;;10.57;72.92
22753;BME280;11543;43.144;24.684;2023-04-10T02:36:00;99056.09;;;10.61;72.68
22753;BME280;11543;43.144;24.684;2023-04-10T02:38:26;99053.56;;;10.60;72.65
22753;BME280;11543;43.144;24.684;2023-04-10T02:40:51;99030.78;;;10.46;72.73
22753;BME280;11543;43.144;24.684;2023-04-10T02:43:17;99037.69;;;10.48;72.31
22753;BME280;11543;43.144;24.684;2023-04-10T02:45:43;99035.31;;;10.45;72.56
22753;BME280;11543;43.144;24.684;2023-04-10T02:48:08;99037.22;;;10.53;72.25
22753;BME280;11543;43.144;24.684;2023-04-10T02:50:35;99030.47;;;10.49;72.15
22753;BME280;11543;43.144;24.684;2023-04-10T02:53:01;99045.97;;;10.55;71.88
22753;BME280;11543;43.144;24.684;2023-04-10T02:55:26;99028.25;;;10.44;72.17
22753;BME280;11543;43.144;24.684;2023-04-10T02:57:52;99040.91;;;10.52;71.77
22753;BME280;11543;43.144;24.684;2023-04-10T03:00:17;99037.84;;;10.47;71.93
22753;BME280;11543;43.144;24.684;2023-04-10T03:02:44;99040.91;;;10.52;71.70
22753;BME280;11543;43.144;24.684;2023-04-10T03:05:09;99031.06;;;10.43;71.59
22753;BME280;11543;43.144;24.684;2023-04-10T03:07:35;99029.38;;;10.42;71.50
22753;BME280;11543;43.144;24.684;2023-04-10T03:10:01;99034.44;;;10.45;71.53
22753;BME280;11543;43.144;24.684;2023-04-10T03:12:26;99031.06;;;10.43;71.62
22753;BME280;11543;43.144;24.684;2023-04-10T03:14:52;99036.72;;;10.40;71.53
22753;BME280;11543;43.144;24.684;2023-04-10T03:17:18;99046.47;;;10.41;71.52
22753;BME280;11543;43.144;24.684;2023-04-10T03:19:43;99039.00;;;10.35;71.69
22753;BME280;11543;43.144;24.684;2023-04-10T03:22:09;99053.38;;;10.43;71.42
22753;BME280;11543;43.144;24.684;2023-04-10T03:24:35;99054.22;;;10.44;71.41
22753;BME280;11543;43.144;24.684;2023-04-10T03:27:02;99059.03;;;10.40;71.48
22753;BME280;11543;43.144;24.684;2023-04-10T03:29:28;99054.78;;;10.38;71.47
22753;BME280;11543;43.144;24.684;2023-04-10T03:31:53;99054.78;;;10.38;71.22
22753;BME280;11543;43.144;24.684;2023-04-10T03:34:19;99058.47;;;10.37;71.54
22753;BME280;11543;43.144;24.684;2023-04-10T03:36:44;99059.59;;;10.34;71.31
22753;BME280;11543;43.144;24.684;2023-04-10T03:39:10;99057.75;;;10.35;71.42
22753;BME280;11543;43.144;24.684;2023-04-10T03:41:36;99041.88;;;10.24;71.37
22753;BME280;11543;43.144;24.684;2023-04-10T03:44:02;99050.31;;;10.29;71.19
22753;BME280;11543;43.144;24.684;2023-04-10T03:46:28;99037.75;;;10.19;71.17
22753;BME280;11543;43.144;24.684;2023-04-10T03:48:58;99048.38;;;10.11;71.19
22753;BME280;11543;43.144;24.684;2023-04-10T03:51:26;99075.44;;;10.28;71.18
22753;BME280;11543;43.144;24.684;2023-04-10T03:53:55;99072.06;;;10.26;70.88
22753;BME280;11543;43.144;24.684;2023-04-10T03:56:23;99054.03;;;10.08;71.02
22753;BME280;11543;43.144;24.684;2023-04-10T03:58:48;99071.53;;;10.12;71.22
22753;BME280;11543;43.144;24.684;2023-04-10T04:01:14;99083.34;;;10.19;70.92
22753;BME280;11543;43.144;24.684;2023-04-10T04:03:40;99081.66;;;10.18;71.07
22753;BME280;11543;43.144;24.684;2023-04-10T04:06:06;99073.50;;;10.10;71.00
22753;BME280;11543;43.144;24.684;2023-04-10T04:08:34;99070.41;;;10.05;71.15
22753;BME280;11543;43.144;24.684;2023-04-10T04:11:00;99073.09;;;10.05;71.12
22753;BME280;11543;43.144;24.684;2023-04-10T04:13:26;99097.75;;;10.18;71.09
22753;BME280;11543;43.144;24.684;2023-04-10T04:15:52;99087.16;;;10.17;70.95
22753;BME280;11543;43.144;24.684;2023-04-10T04:18:17;99092.97;;;10.22;71.13
22753;BME280;11543;43.144;24.684;2023-04-10T04:20:43;99097.47;;;10.21;70.82
22753;BME280;11543;43.144;24.684;2023-04-10T04:23:08;99092.38;;;10.18;70.69
22753;BME280;11543;43.144;24.684;2023-04-10T04:25:34;99098.03;;;10.25;70.75
22753;BME280;11543;43.144;24.684;2023-04-10T04:28:00;99096.88;;;10.28;70.77
22753;BME280;11543;43.144;24.684;2023-04-10T04:30:26;99081.41;;;10.21;71.11
22753;BME280;11543;43.144;24.684;2023-04-10T04:32:51;99093.91;;;10.31;70.60
22753;BME280;11543;43.144;24.684;2023-04-10T04:35:17;99090.84;;;10.26;70.77
22753;BME280;11543;43.144;24.684;2023-04-10T04:37:43;99098.59;;;10.29;70.95
22753;BME280;11543;43.144;24.684;2023-04-10T04:40:11;99089.84;;;10.27;71.19
22753;BME280;11543;43.144;24.684;2023-04-10T04:42:40;99099.97;;;10.33;71.26
22753;BME280;11543;43.144;24.684;2023-04-10T04:45:06;99092.38;;;10.28;71.06
22753;BME280;11543;43.144;24.684;2023-04-10T04:47:32;99100.97;;;10.32;71.23
22753;BME280;11543;43.144;24.684;2023-04-10T04:49:58;99113.22;;;10.44;71.44
22753;BME280;11543;43.144;24.684;2023-04-10T04:52:23;99105.59;;;10.49;71.21
22753;BME280;11543;43.144;24.684;2023-04-10T04:54:49;99107.97;;;10.52;71.08
22753;BME280;11543;43.144;24.684;2023-04-10T04:57:15;99092.06;;;10.41;71.33
22753;BME280;11543;43.144;24.684;2023-04-10T04:59:40;99119.09;;;10.57;71.56
22753;BME280;11543;43.144;24.684;2023-04-10T05:02:06;99112.44;;;10.61;71.55
22753;BME280;11543;43.144;24.684;2023-04-10T05:04:34;99109.16;;;10.67;71.52
22753;BME280;11543;43.144;24.684;2023-04-10T05:07:00;99110.56;;;10.71;71.58
22753;BME280;11543;43.144;24.684;2023-04-10T05:09:26;99099.81;;;10.71;71.57
22753;BME280;11543;43.144;24.684;2023-04-10T05:11:53;99109.34;;;10.83;71.92
22753;BME280;11543;43.144;24.684;2023-04-10T05:14:19;99108.75;;;10.90;72.09
22753;BME280;11543;43.144;24.684;2023-04-10T05:16:49;99101.78;;;10.97;71.75
22753;BME280;11543;43.144;24.684;2023-04-10T05:19:15;99091.34;;;10.94;71.90
22753;BME280;11543;43.144;24.684;2023-04-10T05:21:43;99111.31;;;11.09;72.12
22753;BME280;11543;43.144;24.684;2023-04-10T05:24:11;99098.19;;;11.06;72.57
22753;BME280;11543;43.144;24.684;2023-04-10T05:26:36;99085.47;;;11.08;72.25
22753;BME280;11543;43.144;24.684;2023-04-10T05:29:03;99084.63;;;11.07;72.43
22753;BME280;11543;43.144;24.684;2023-04-10T05:31:28;99115.56;;;11.29;72.71
22753;BME280;11543;43.144;24.684;2023-04-10T05:33:54;99117.81;;;11.34;72.80
22753;BME280;11543;43.144;24.684;2023-04-10T05:36:20;99101.16;;;11.30;72.89
22753;BME280;11543;43.144;24.684;2023-04-10T05:38:45;99108.59;;;11.36;72.77
22753;BME280;11543;43.144;24.684;2023-04-10T05:41:11;99115.88;;;11.44;73.15
22753;BME280;11543;43.144;24.684;2023-04-10T05:43:36;99100.84;;;11.33;73.16
22753;BME280;11543;43.144;24.684;2023-04-10T05:46:02;99117.63;;;11.53;73.24
22753;BME280;11543;43.144;24.684;2023-04-10T05:48:27;99109.44;;;11.55;72.67
22753;BME280;11543;43.144;24.684;2023-04-10T05:50:53;99105.44;;;11.59;72.94
22753;BME280;11543;43.144;24.684;2023-04-10T05:53:19;99113.09;;;11.71;72.87
22753;BME280;11543;43.144;24.684;2023-04-10T05:55:49;99102.50;;;11.70;72.38
22753;BME280;11543;43.144;24.684;2023-04-10T05:58:20;99117.00;;;11.77;72.33
22753;BME280;11543;43.144;24.684;2023-04-10T06:00:46;99115.03;;;11.79;72.23
22753;BME280;11543;43.144;24.684;2023-04-10T06:03:12;99097.97;;;11.70;72.23
22753;BME280;11543;43.144;24.684;2023-04-10T06:05:37;99115.47;;;11.92;72.21
22753;BME280;11543;43.144;24.684;2023-04-10T06:08:03;99101.19;;;11.92;71.99
22753;BME280;11543;43.144;24.684;2023-04-10T06:10:29;99107.50;;;12.08;71.78
22753;BME280;11543;43.144;24.684;2023-04-10T06:12:55;99086.84;;;12.09;71.96
22753;BME280;11543;43.144;24.684;2023-04-10T06:15:21;99114.38;;;12.29;71.22
22753;BME280;11543;43.144;24.684;2023-04-10T06:17:54;99089.81;;;12.24;71.14
22753;BME280;11543;43.144;24.684;2023-04-10T06:20:20;99109.75;;;12.39;70.80
22753;BME280;11543;43.144;24.684;2023-04-10T06:22:45;99092.91;;;12.37;70.67
22753;BME280;11543;43.144;24.684;2023-04-10T06:25:11;99094.13;;;12.42;70.64
22753;BME280;11543;43.144;24.684;2023-04-10T06:27:37;99091.25;;;12.44;70.58
22753;BME280;11543;43.144;24.684;2023-04-10T06:30:03;99104.34;;;12.39;71.54
22753;BME280;11543;43.144;24.684;2023-04-10T06:32:29;99098.81;;;12.40;71.68
22753;BME280;11543;43.144;24.684;2023-04-10T06:34:55;99097.97;;;12.40;71.58
22753;BME280;11543;43.144;24.684;2023-04-10T06:37:28;99117.94;;;12.63;71.45
22753;BME280;11543;43.144;24.684;2023-04-10T06:40:10;99111.91;;;12.69;71.04
22753;BME280;11543;43.144;24.684;2023-04-10T06:42:36;99120.34;;;12.83;70.93
22753;BME280;11543;43.144;24.684;2023-04-10T06:45:03;99118.69;;;12.82;70.70
22753;BME280;11543;43.144;24.684;2023-04-10T06:47:29;99124.09;;;12.90;70.26
22753;BME280;11543;43.144;24.684;2023-04-10T06:49:56;99124.78;;;13.00;70.41
22753;BME280;11543;43.144;24.684;2023-04-10T06:52:22;99103.56;;;12.97;70.26
22753;BME280;11543;43.144;24.684;2023-04-10T06:54:48;99107.75;;;13.25;68.27
22753;BME280;11543;43.144;24.684;2023-04-10T06:57:13;99118.03;;;13.38;67.19
22753;BME280;11543;43.144;24.684;2023-04-10T06:59:40;99130.69;;;13.46;67.21
22753;BME280;11543;43.144;24.684;2023-04-10T07:02:15;99107.09;;;13.39;67.36
22753;BME280;11543;43.144;24.684;2023-04-10T07:04:46;99093.63;;;13.39;67.20
22753;BME280;11543;43.144;24.684;2023-04-10T07:07:11;99112.16;;;13.51;67.14
22753;BME280;11543;43.144;24.684;2023-04-10T07:09:40;99090.25;;;13.54;67.03
22753;BME280;11543;43.144;24.684;2023-04-10T07:12:06;99123.63;;;13.77;66.93
22753;BME280;11543;43.144;24.684;2023-04-10T07:14:34;99104.06;;;13.75;66.90
22753;BME280;11543;43.144;24.684;2023-04-10T07:17:00;99119.22;;;13.84;66.60
22753;BME280;11543;43.144;24.684;2023-04-10T07:19:26;99115.88;;;13.82;66.32
22753;BME280;11543;43.144;24.684;2023-04-10T07:21:55;99102.75;;;13.87;65.90
22753;BME280;11543;43.144;24.684;2023-04-10T07:28:07;99102.69;;;14.20;64.37
22753;BME280;11543;43.144;24.684;2023-04-10T07:30:33;99108.25;;;14.26;63.94
22753;BME280;11543;43.144;24.684;2023-04-10T07:32:58;99094.59;;;14.28;64.29
22753;BME280;11543;43.144;24.684;2023-04-10T07:35:26;99107.06;;;14.29;63.46
22753;BME280;11543;43.144;24.684;2023-04-10T07:37:52;99101.66;;;14.45;63.22
22753;BME280;11543;43.144;24.684;2023-04-10T07:40:21;99117.97;;;14.60;62.17
22753;BME280;11543;43.144;24.684;2023-04-10T07:43:05;99102.78;;;14.59;61.51
22753;BME280;11543;43.144;24.684;2023-04-10T07:45:31;99103.25;;;14.79;61.77
22753;BME280;11543;43.144;24.684;2023-04-10T07:47:56;99096.91;;;14.94;61.69
22753;BME280;11543;43.144;24.684;2023-04-10T07:50:23;99083.34;;;15.03;61.11
22753;BME280;11543;43.144;24.684;2023-04-10T07:53:07;99085.84;;;15.12;59.25
22753;BME280;11543;43.144;24.684;2023-04-10T07:56:25;99093.72;;;15.45;58.97
22753;BME280;11543;43.144;24.684;2023-04-10T08:02:34;99090.50;;;15.95;56.46
22753;BME280;11543;43.144;24.684;2023-04-10T08:05:12;99084.94;;;16.26;55.33
22753;BME280;11543;43.144;24.684;2023-04-10T08:08:01;99098.22;;;16.50;55.26
22753;BME280;11543;43.144;24.684;2023-04-10T08:17:08;99091.50;;;17.27;50.63
22753;BME280;11543;43.144;24.684;2023-04-10T09:01:27;99037.56;;;18.30;42.87
22753;BME280;11543;43.144;24.684;2023-04-10T09:07:53;99027.41;;;18.45;43.06
22753;BME280;11543;43.144;24.684;2023-04-10T09:11:16;99043.78;;;18.59;43.15
22753;BME280;11543;43.144;24.684;2023-04-10T09:14:46;99020.13;;;18.53;43.57
22753;BME280;11543;43.144;24.684;2023-04-10T09:21:44;99014.19;;;18.36;45.44
22753;BME280;11543;43.144;24.684;2023-04-10T09:25:27;99007.81;;;18.57;44.79
22753;BME280;11543;43.144;24.684;2023-04-10T09:56:09;98972.00;;;20.46;39.71
22753;BME280;11543;43.144;24.684;2023-04-10T09:58:35;98959.91;;;20.22;39.41
22753;BME280;11543;43.144;24.684;2023-04-10T10:01:02;98961.84;;;19.82;39.51
22753;BME280;11543;43.144;24.684;2023-04-10T10:03:28;98962.91;;;19.55;39.77
22753;BME280;11543;43.144;24.684;2023-04-10T10:05:56;98952.41;;;19.25;39.61
22753;BME280;11543;43.144;24.684;2023-04-10T10:08:23;98954.50;;;19.17;39.83
22753;BME280;11543;43.144;24.684;2023-04-10T10:10:56;98949.91;;;19.17;40.69
22753;BME280;11543;43.144;24.684;2023-04-10T10:13:27;98948.22;;;19.23;40.96
22753;BME280;11543;43.144;24.684;2023-04-10T10:16:05;98959.53;;;19.33;39.50
22753;BME280;11543;43.144;24.684;2023-04-10T10:21:17;98956.16;;;19.18;39.58
22753;BME280;11543;43.144;24.684;2023-04-10T10:23:46;98948.19;;;19.03;40.42
22753;BME280;11543;43.144;24.684;2023-04-10T10:26:13;98950.25;;;18.94;40.54
22753;BME280;11543;43.144;24.684;2023-04-10T10:28:40;98952.28;;;18.72;40.07
22753;BME280;11543;43.144;24.684;2023-04-10T10:31:06;98941.75;;;18.56;40.61
22753;BME280;11543;43.144;24.684;2023-04-10T10:33:35;98931.50;;;18.52;41.48
22753;BME280;11543;43.144;24.684;2023-04-10T10:36:02;98932.63;;;18.64;40.48
22753;BME280;11543;43.144;24.684;2023-04-10T10:38:29;98921.09;;;18.62;41.25
22753;BME280;11543;43.144;24.684;2023-04-10T10:41:09;98928.47;;;18.81;40.77
22753;BME280;11543;43.144;24.684;2023-04-10T10:43:49;98932.47;;;18.92;38.81
22753;BME280;11543;43.144;24.684;2023-04-10T10:48:58;98927.25;;;18.90;39.50
22753;BME280;11543;43.144;24.684;2023-04-10T10:51:51;98920.34;;;18.94;38.48
22753;BME280;11543;43.144;24.684;2023-04-10T10:54:36;98917.63;;;18.94;38.38
22753;BME280;11543;43.144;24.684;2023-04-10T10:57:02;98919.72;;;18.99;38.33
22753;BME280;11543;43.144;24.684;2023-04-10T11:02:15;98911.34;;;19.00;39.69
22753;BME280;11543;43.144;24.684;2023-04-10T11:04:42;98902.16;;;18.95;40.26
22753;BME280;11543;43.144;24.684;2023-04-10T11:07:09;98898.81;;;18.93;40.49
22753;BME280;11543;43.144;24.684;2023-04-10T11:09:45;98895.03;;;18.94;40.29
22753;BME280;11543;43.144;24.684;2023-04-10T11:12:14;98901.09;;;19.02;40.24
22753;BME280;11543;43.144;24.684;2023-04-10T11:14:42;98890.84;;;18.98;40.02
22753;BME280;11543;43.144;24.684;2023-04-10T11:17:10;98887.06;;;18.79;40.29
22753;BME280;11543;43.144;24.684;2023-04-10T11:20:03;98891.59;;;18.59;41.01
22753;BME280;11543;43.144;24.684;2023-04-10T11:22:29;98886.75;;;18.48;42.27
22753;BME280;11543;43.144;24.684;2023-04-10T11:24:59;98886.53;;;18.42;43.84
22753;BME280;11543;43.144;24.684;2023-04-10T11:27:40;98888.44;;;18.01;41.87
22753;BME280;11543;43.144;24.684;2023-04-10T11:30:30;98895.38;;;17.69;40.91
22753;BME280;11543;43.144;24.684;2023-04-10T11:32:57;98883.47;;;17.70;41.89
22753;BME280;11543;43.144;24.684;2023-04-10T11:35:24;98884.03;;;17.65;42.56
22753;BME280;11543;43.144;24.684;2023-04-10T11:37:50;98874.38;;;17.56;42.12
22753;BME280;11543;43.144;24.684;2023-04-10T11:40:19;98875.19;;;17.50;41.15
22753;BME280;11543;43.144;24.684;2023-04-10T11:42:45;98868.31;;;17.54;41.56
22753;BME280;11543;43.144;24.684;2023-04-10T11:45:25;98883.16;;;17.58;41.44
22753;BME280;11543;43.144;24.684;2023-04-10T11:47:52;98876.06;;;17.57;41.14
22753;BME280;11543;43.144;24.684;2023-04-10T11:50:18;98874.44;;;17.63;40.95
22753;BME280;11543;43.144;24.684;2023-04-10T11:52:51;98863.63;;;17.69;40.96
22753;BME280;11543;43.144;24.684;2023-04-10T11:55:16;98868.28;;;17.75;41.06
22753;BME280;11543;43.144;24.684;2023-04-10T11:57:44;98863.69;;;17.76;41.63
22753;BME280;11543;43.144;24.684;2023-04-10T12:00:10;98855.75;;;17.74;42.22
22753;BME280;11543;43.144;24.684;2023-04-10T12:02:49;98851.59;;;17.78;41.67
22753;BME280;11543;43.144;24.684;2023-04-10T12:05:16;98849.09;;;17.83;41.92
22753;BME280;11543;43.144;24.684;2023-04-10T12:07:42;98843.72;;;17.90;41.88
22753;BME280;11543;43.144;24.684;2023-04-10T12:10:08;98830.97;;;17.91;42.19
22753;BME280;11543;43.144;24.684;2023-04-10T12:12:35;98833.28;;;17.94;42.47
22753;BME280;11543;43.144;24.684;2023-04-10T12:15:23;98836.63;;;17.96;42.51
22753;BME280;11543;43.144;24.684;2023-04-10T12:17:52;98824.50;;;17.92;41.39
22753;BME280;11543;43.144;24.684;2023-04-10T12:20:17;98833.47;;;17.92;41.72
22753;BME280;11543;43.144;24.684;2023-04-10T12:22:45;98824.91;;;17.89;41.75
22753;BME280;11543;43.144;24.684;2023-04-10T12:25:11;98827.22;;;17.92;41.47
22753;BME280;11543;43.144;24.684;2023-04-10T12:27:36;98819.47;;;17.89;41.58
22753;BME280;11543;43.144;24.684;2023-04-10T12:30:06;98816.56;;;17.90;41.50
22753;BME280;11543;43.144;24.684;2023-04-10T12:32:32;98812.31;;;17.74;41.38
22753;BME280;11543;43.144;24.684;2023-04-10T12:34:58;98801.88;;;17.71;40.70
22753;BME280;11543;43.144;24.684;2023-04-10T12:40:11;98797.22;;;17.65;41.34
22753;BME280;11543;43.144;24.684;2023-04-10T12:42:42;98793.88;;;17.63;41.27
22753;BME280;11543;43.144;24.684;2023-04-10T12:45:08;98786.97;;;17.61;42.18
22753;BME280;11543;43.144;24.684;2023-04-10T12:47:47;98778.72;;;17.41;43.57
22753;BME280;11543;43.144;24.684;2023-04-10T12:50:15;98786.44;;;17.09;44.24
22753;BME280;11543;43.144;24.684;2023-04-10T12:52:45;98779.25;;;16.95;45.23
22753;BME280;11543;43.144;24.684;2023-04-10T12:57:37;98804.97;;;16.78;46.86
22753;BME280;11543;43.144;24.684;2023-04-10T13:00:06;98821.88;;;16.80;49.69
22753;BME280;11543;43.144;24.684;2023-04-10T13:02:37;98825.84;;;16.84;51.38
22753;BME280;11543;43.144;24.684;2023-04-10T13:05:06;98828.56;;;16.63;56.33
22753;BME280;11543;43.144;24.684;2023-04-10T13:07:33;98823.88;;;16.35;59.79
22753;BME280;11543;43.144;24.684;2023-04-10T13:10:00;98804.38;;;16.04;61.71
22753;BME280;11543;43.144;24.684;2023-04-10T13:12:28;98797.53;;;15.86;62.98
22753;BME280;11543;43.144;24.684;2023-04-10T13:14:55;98797.84;;;15.62;64.83
22753;BME280;11543;43.144;24.684;2023-04-10T13:17:21;98795.00;;;15.11;65.69
22753;BME280;11543;43.144;24.684;2023-04-10T13:19:47;98804.03;;;15.04;65.41
22753;BME280;11543;43.144;24.684;2023-04-10T13:22:13;98814.44;;;14.92;65.97
22753;BME280;11543;43.144;24.684;2023-04-10T13:24:39;98817.41;;;14.82;65.79
22753;BME280;11543;43.144;24.684;2023-04-10T13:27:04;98830.00;;;14.67;66.56
22753;BME280;11543;43.144;24.684;2023-04-10T13:29:30;98829.97;;;14.52;66.72
22753;BME280;11543;43.144;24.684;2023-04-10T13:31:55;98819.22;;;14.44;67.15
22753;BME280;11543;43.144;24.684;2023-04-10T13:34:21;98815.50;;;14.45;66.82
22753;BME280;11543;43.144;24.684;2023-04-10T13:36:47;98822.94;;;14.43;66.98
22753;BME280;11543;43.144;24.684;2023-04-10T13:39:13;98827.81;;;14.48;66.65
22753;BME280;11543;43.144;24.684;2023-04-10T13:41:38;98814.78;;;14.51;66.26
22753;BME280;11543;43.144;24.684;2023-04-10T13:44:04;98806.63;;;14.59;65.69
22753;BME280;11543;43.144;24.684;2023-04-10T13:46:29;98818.00;;;14.70;65.50
22753;BME280;11543;43.144;24.684;2023-04-10T13:48:55;98821.03;;;14.75;65.45
22753;BME280;11543;43.144;24.684;2023-04-10T13:51:21;98813.59;;;14.77;65.28
22753;BME280;11543;43.144;24.684;2023-04-10T13:53:46;98810.22;;;14.75;66.37
22753;BME280;11543;43.144;24.684;2023-04-10T13:56:15;98806.13;;;14.79;66.30
22753;BME280;11543;43.144;24.684;2023-04-10T13:58:40;98808.00;;;14.78;67.16
22753;BME280;11543;43.144;24.684;2023-04-10T14:01:06;98803.13;;;14.74;67.84
22753;BME280;11543;43.144;24.684;2023-04-10T14:03:31;98794.34;;;14.72;67.63
22753;BME280;11543;43.144;24.684;2023-04-10T14:05:57;98800.13;;;14.69;67.94
22753;BME280;11543;43.144;24.684;2023-04-10T14:08:22;98799.16;;;14.61;68.03
22753;BME280;11543;43.144;24.684;2023-04-10T14:10:48;98793.28;;;14.58;67.30
22753;BME280;11543;43.144;24.684;2023-04-10T14:13:15;98788.75;;;14.58;66.35
22753;BME280;11543;43.144;24.684;2023-04-10T14:15:42;98785.75;;;14.53;66.32
22753;BME280;11543;43.144;24.684;2023-04-10T14:18:08;98783.22;;;14.52;66.22
22753;BME280;11543;43.144;24.684;2023-04-10T14:20:34;98788.16;;;14.48;68.81
22753;BME280;11543;43.144;24.684;2023-04-10T14:22:59;98782.22;;;14.53;67.87
22753;BME280;11543;43.144;24.684;2023-04-10T14:25:25;98782.97;;;14.61;67.02
22753;BME280;11543;43.144;24.684;2023-04-10T14:27:51;98775.91;;;14.60;66.82
22753;BME280;11543;43.144;24.684;2023-04-10T14:30:17;98764.06;;;14.61;66.82
22753;BME280;11543;43.144;24.684;2023-04-10T14:32:42;98771.81;;;14.64;66.97
22753;BME280;11543;43.144;24.684;2023-04-10T14:35:08;98788.25;;;14.78;66.26
22753;BME280;11543;43.144;24.684;2023-04-10T14:37:35;98767.97;;;14.82;65.49
22753;BME280;11543;43.144;24.684;2023-04-10T14:40:00;98783.63;;;15.01;65.31
22753;BME280;11543;43.144;24.684;2023-04-10T14:42:26;98774.69;;;15.15;64.38
22753;BME280;11543;43.144;24.684;2023-04-10T14:44:52;98775.06;;;15.27;63.44
22753;BME280;11543;43.144;24.684;2023-04-10T14:47:17;98773.56;;;15.24;62.77
22753;BME280;11543;43.144;24.684;2023-04-10T14:49:43;98765.38;;;15.33;62.34
22753;BME280;11543;43.144;24.684;2023-04-10T14:52:08;98771.88;;;15.53;61.53
22753;BME280;11543;43.144;24.684;2023-04-10T14:54:34;98771.16;;;15.59;61.04
22753;BME280;11543;43.144;24.684;2023-04-10T14:56:59;98763.75;;;15.53;60.88